createdAt,value
2023-05-14T00:00:00.180Z,3.07
2023-05-14T00:10:01.771Z,2.10
2023-05-14T00:20:04.835Z,1.70
2023-05-14T00:30:06.731Z,1.67
2023-05-14T00:40:08.911Z,0.80
2023-05-14T00:50:12.056Z,0.97
2023-05-14T01:00:13.964Z,1.83
2023-05-14T01:10:26.736Z,1.13
2023-05-14T01:20:28.422Z,1.57
2023-05-14T01:30:38.387Z,1.40
2023-05-14T01:40:47.443Z,1.10
2023-05-14T01:50:48.964Z,2.10
2023-05-14T02:00:53.042Z,1.10
2023-05-14T02:10:54.575Z,1.47
2023-05-14T02:20:56.097Z,1.30
2023-05-14T02:31:00.595Z,1.43
2023-05-14T02:41:02.163Z,1.40
2023-05-14T02:51:03.887Z,1.33
2023-05-14T03:01:05.423Z,1.60
2023-05-14T03:11:07.110Z,1.20
2023-05-14T03:21:08.653Z,1.20
2023-05-14T03:31:10.272Z,1.10
2023-05-14T03:41:11.835Z,1.17
2023-05-14T03:51:13.372Z,1.50
2023-05-14T04:01:14.956Z,1.20
2023-05-14T04:11:16.445Z,1.17
2023-05-14T04:21:17.948Z,0.93
2023-05-14T04:31:19.588Z,0.87
2023-05-14T04:41:21.111Z,2.30
2023-05-14T04:51:23.193Z,1.55
2023-05-14T05:01:24.715Z,2.00
2023-05-14T05:11:26.300Z,3.03
2023-05-14T05:21:27.901Z,2.67
2023-05-14T05:31:32.323Z,2.17
2023-05-14T05:41:33.871Z,2.00
2023-05-14T05:51:35.398Z,2.43
2023-05-14T06:01:37.289Z,3.17
2023-05-14T06:11:38.821Z,3.60
2023-05-14T06:21:42.150Z,3.57
2023-05-14T06:31:43.753Z,2.17
2023-05-14T06:41:45.281Z,2.50
2023-05-14T06:51:48.253Z,2.30
2023-05-14T07:01:49.996Z,2.47
2023-05-14T07:11:51.550Z,3.20
2023-05-14T07:21:53.153Z,3.03
2023-05-14T07:31:54.701Z,3.47
2023-05-14T07:41:56.243Z,2.55
2023-05-14T07:51:57.785Z,3.03
2023-05-14T08:02:01.942Z,2.50
2023-05-14T08:12:04.032Z,3.38
2023-05-14T08:22:05.755Z,4.00
2023-05-14T08:32:19.325Z,4.60
2023-05-14T08:42:25.183Z,4.50
2023-05-14T08:52:26.713Z,5.13
2023-05-14T09:02:30.812Z,5.72
2023-05-14T09:12:32.341Z,5.70
2023-05-14T09:22:34.672Z,7.35
2023-05-14T09:32:38.010Z,8.07
2023-05-14T09:42:40.286Z,7.37
2023-05-14T09:52:42.257Z,7.90
2023-05-14T10:02:51.404Z,7.93
2023-05-14T10:13:03.081Z,7.38
2023-05-14T10:23:06.195Z,6.30
2023-05-14T10:33:15.217Z,3.57
2023-05-14T10:43:17.586Z,3.80
2023-05-14T10:53:19.766Z,3.43
2023-05-14T11:03:21.446Z,1.95
2023-05-14T11:13:22.974Z,1.30
2023-05-14T11:23:24.473Z,2.07
2023-05-14T11:33:27.507Z,1.95
2023-05-14T11:43:29.259Z,2.27
2023-05-14T11:53:30.912Z,1.70
2023-05-14T12:03:32.787Z,0.70
2023-05-14T12:13:36.368Z,0.70
2023-05-14T12:23:38.610Z,0.50
2023-05-14T12:33:42.568Z,0.40
2023-05-14T12:43:44.672Z,0.80
2023-05-14T12:53:46.129Z,0.70
2023-05-14T13:03:47.659Z,0.53
2023-05-14T13:13:49.176Z,0.50
2023-05-14T13:23:53.845Z,0.70
2023-05-14T13:33:55.322Z,0.57
2023-05-14T13:43:56.829Z,0.60
2023-05-14T13:53:58.362Z,0.60
2023-05-14T14:04:00.004Z,0.70
2023-05-14T14:14:01.556Z,0.70
2023-05-14T14:24:03.112Z,0.52
2023-05-14T14:34:04.632Z,0.60
2023-05-14T14:44:06.217Z,0.40
2023-05-14T14:54:07.763Z,0.57
2023-05-14T15:04:09.364Z,0.60
2023-05-14T15:14:10.869Z,0.50
2023-05-14T15:24:12.795Z,0.40
2023-05-14T15:34:14.306Z,0.20
2023-05-14T15:44:15.862Z,0.28
2023-05-14T15:54:17.431Z,0.43
2023-05-14T16:04:18.992Z,1.10
2023-05-14T16:14:20.496Z,0.40
2023-05-14T16:24:22.021Z,0.50
2023-05-14T16:34:23.623Z,0.65
2023-05-14T16:44:25.201Z,0.60
2023-05-14T16:54:26.762Z,0.57
2023-05-14T17:04:28.311Z,0.43
2023-05-14T17:14:30.284Z,0.70
2023-05-14T17:24:31.810Z,1.00
2023-05-14T17:34:33.310Z,1.10
2023-05-14T17:44:35.277Z,1.20
2023-05-14T17:54:37.102Z,1.07
2023-05-14T18:04:38.772Z,0.97
2023-05-14T18:14:40.401Z,1.00
2023-05-14T18:24:41.974Z,0.87
2023-05-14T18:34:43.479Z,1.05
2023-05-14T18:44:46.202Z,1.43
2023-05-14T18:54:48.978Z,2.03
2023-05-14T19:04:52.271Z,2.38
2023-05-14T19:14:54.592Z,2.90
2023-05-14T19:24:56.094Z,2.40
2023-05-14T19:34:57.597Z,2.57
2023-05-14T19:44:59.133Z,3.57
2023-05-14T19:55:00.636Z,3.60
2023-05-14T20:05:02.146Z,2.90
2023-05-14T20:15:04.048Z,2.42
2023-05-14T20:25:06.445Z,2.10
2023-05-14T20:35:08.050Z,1.00
2023-05-14T20:45:12.378Z,1.33
2023-05-14T20:55:14.227Z,0.80
2023-05-14T21:05:16.681Z,1.20
2023-05-14T21:15:18.330Z,1.30
2023-05-14T21:25:19.857Z,1.17
2023-05-14T21:35:21.478Z,1.38
2023-05-14T21:45:23.707Z,1.30
2023-05-14T21:55:27.658Z,1.50
2023-05-14T22:05:29.436Z,2.47
2023-05-14T22:15:30.969Z,1.60
2023-05-14T22:25:32.801Z,1.80
2023-05-14T22:35:34.316Z,2.47
2023-05-14T22:45:37.223Z,3.05
2023-05-14T22:55:38.717Z,3.30
2023-05-14T23:05:40.226Z,3.47
2023-05-14T23:15:43.794Z,3.50
2023-05-14T23:25:45.354Z,3.70
2023-05-14T23:35:47.013Z,2.60
2023-05-14T23:45:48.514Z,2.03
2023-05-14T23:55:52.260Z,2.80
